<?xml version="1.0" encoding="UTF-8" standalone="no" ?>
<gpx xmlns="http://www.topografix.com/GPX/1/1" xmlns:xsi="http://www.w3.org/2001/XMLSchema-instance" xsi:schemaLocation="http://www.topografix.com/GPX/1/1 http://www.topografix.com/GPX/1/1/gpx.xsd" version="1.1" creator="VisuGPX - https://www.visugpx.com">
  <metadata>
    <name>But Saint-Genis (Drôme)</name>
    <desc><![CDATA[Randonnée peu difficile à partir du Centre Préhistorique de Vassieux-en-Vercors réalisée avec le Caf Grenoble Isère]]></desc>
  </metadata>
  <trk>
    <name><![CDATA[But Saint-Genis-2 - PD-]]></name>
    <trkseg>
      <trkpt lat="44.86546" lon="5.35645">
        <ele>1180</ele>
        <time>2011-05-01T08:14:50Z</time>
      </trkpt>
      <trkpt lat="44.86548" lon="5.35661">
        <ele>1180</ele>
        <time>2011-05-01T08:19:26Z</time>
      </trkpt>
      <trkpt lat="44.86566" lon="5.35704">
        <ele>1179</ele>
        <time>2011-05-01T08:20:51Z</time>
      </trkpt>
      <trkpt lat="44.8655" lon="5.35748">
        <ele>1180</ele>
        <time>2011-05-01T08:21:27Z</time>
      </trkpt>
      <trkpt lat="44.86521" lon="5.35735">
        <ele>1181</ele>
        <time>2011-05-01T08:22:01Z</time>
      </trkpt>
      <trkpt lat="44.86473" lon="5.35728">
        <ele>1185</ele>
        <time>2011-05-01T08:22:39Z</time>
      </trkpt>
      <trkpt lat="44.86369" lon="5.35699">
        <ele>1199</ele>
        <time>2011-05-01T08:24:45Z</time>
      </trkpt>
      <trkpt lat="44.86334" lon="5.35717">
        <ele>1204</ele>
        <time>2011-05-01T08:25:37Z</time>
      </trkpt>
      <trkpt lat="44.86303" lon="5.35689">
        <ele>1210</ele>
        <time>2011-05-01T08:26:26Z</time>
      </trkpt>
      <trkpt lat="44.86198" lon="5.35604">
        <ele>1227</ele>
        <time>2011-05-01T08:29:11Z</time>
      </trkpt>
      <trkpt lat="44.86159" lon="5.3556">
        <ele>1234</ele>
        <time>2011-05-01T08:30:26Z</time>
      </trkpt>
      <trkpt lat="44.861" lon="5.35549">
        <ele>1241</ele>
        <time>2011-05-01T08:31:56Z</time>
      </trkpt>
      <trkpt lat="44.86056" lon="5.35536">
        <ele>1247</ele>
        <time>2011-05-01T08:32:57Z</time>
      </trkpt>
      <trkpt lat="44.85984" lon="5.35499">
        <ele>1255</ele>
        <time>2011-05-01T08:34:42Z</time>
      </trkpt>
      <trkpt lat="44.85923" lon="5.3548">
        <ele>1261</ele>
        <time>2011-05-01T08:37:50Z</time>
      </trkpt>
      <trkpt lat="44.85899" lon="5.354">
        <ele>1266</ele>
        <time>2011-05-01T08:39:06Z</time>
      </trkpt>
      <trkpt lat="44.85889" lon="5.35341">
        <ele>1269</ele>
        <time>2011-05-01T08:39:41Z</time>
      </trkpt>
      <trkpt lat="44.85872" lon="5.35291">
        <ele>1271</ele>
        <time>2011-05-01T08:40:21Z</time>
      </trkpt>
      <trkpt lat="44.85859" lon="5.35227">
        <ele>1273</ele>
        <time>2011-05-01T08:41:11Z</time>
      </trkpt>
      <trkpt lat="44.85865" lon="5.35164">
        <ele>1276</ele>
        <time>2011-05-01T08:41:51Z</time>
      </trkpt>
      <trkpt lat="44.85882" lon="5.35104">
        <ele>1279</ele>
        <time>2011-05-01T08:42:34Z</time>
      </trkpt>
      <trkpt lat="44.8592" lon="5.35057">
        <ele>1284</ele>
        <time>2011-05-01T08:43:26Z</time>
      </trkpt>
      <trkpt lat="44.85926" lon="5.35026">
        <ele>1286</ele>
        <time>2011-05-01T08:45:05Z</time>
      </trkpt>
      <trkpt lat="44.85953" lon="5.3498">
        <ele>1291</ele>
        <time>2011-05-01T08:45:43Z</time>
      </trkpt>
      <trkpt lat="44.85978" lon="5.34918">
        <ele>1297</ele>
        <time>2011-05-01T08:46:35Z</time>
      </trkpt>
      <trkpt lat="44.86016" lon="5.34868">
        <ele>1303</ele>
        <time>2011-05-01T08:47:20Z</time>
      </trkpt>
      <trkpt lat="44.86016" lon="5.34843">
        <ele>1305</ele>
        <time>2011-05-01T08:50:18Z</time>
      </trkpt>
      <trkpt lat="44.85982" lon="5.34814">
        <ele>1310</ele>
        <time>2011-05-01T08:50:48Z</time>
      </trkpt>
      <trkpt lat="44.85955" lon="5.34816">
        <ele>1313</ele>
        <time>2011-05-01T08:51:21Z</time>
      </trkpt>
      <trkpt lat="44.85923" lon="5.34783">
        <ele>1317</ele>
        <time>2011-05-01T08:51:56Z</time>
      </trkpt>
      <trkpt lat="44.85872" lon="5.34748">
        <ele>1324</ele>
        <time>2011-05-01T08:52:51Z</time>
      </trkpt>
      <trkpt lat="44.85831" lon="5.34725">
        <ele>1328</ele>
        <time>2011-05-01T08:53:36Z</time>
      </trkpt>
      <trkpt lat="44.85792" lon="5.34683">
        <ele>1333</ele>
        <time>2011-05-01T08:54:31Z</time>
      </trkpt>
      <trkpt lat="44.85747" lon="5.34662">
        <ele>1337</ele>
        <time>2011-05-01T08:55:28Z</time>
      </trkpt>
      <trkpt lat="44.85722" lon="5.34626">
        <ele>1340</ele>
        <time>2011-05-01T08:56:13Z</time>
      </trkpt>
      <trkpt lat="44.85651" lon="5.3454">
        <ele>1348</ele>
        <time>2011-05-01T08:57:48Z</time>
      </trkpt>
      <trkpt lat="44.85616" lon="5.34502">
        <ele>1351</ele>
        <time>2011-05-01T08:58:56Z</time>
      </trkpt>
      <trkpt lat="44.85579" lon="5.3448">
        <ele>1354</ele>
        <time>2011-05-01T08:59:36Z</time>
      </trkpt>
      <trkpt lat="44.8555" lon="5.34438">
        <ele>1358</ele>
        <time>2011-05-01T09:00:21Z</time>
      </trkpt>
      <trkpt lat="44.85501" lon="5.34416">
        <ele>1362</ele>
        <time>2011-05-01T09:01:06Z</time>
      </trkpt>
      <trkpt lat="44.85449" lon="5.34412">
        <ele>1366</ele>
        <time>2011-05-01T09:02:01Z</time>
      </trkpt>
      <trkpt lat="44.85406" lon="5.34402">
        <ele>1371</ele>
        <time>2011-05-01T09:02:56Z</time>
      </trkpt>
      <trkpt lat="44.85357" lon="5.34376">
        <ele>1377</ele>
        <time>2011-05-01T09:03:46Z</time>
      </trkpt>
      <trkpt lat="44.85327" lon="5.34351">
        <ele>1382</ele>
        <time>2011-05-01T09:04:31Z</time>
      </trkpt>
      <trkpt lat="44.85277" lon="5.34315">
        <ele>1391</ele>
        <time>2011-05-01T09:06:16Z</time>
      </trkpt>
      <trkpt lat="44.85267" lon="5.34285">
        <ele>1395</ele>
        <time>2011-05-01T09:10:46Z</time>
      </trkpt>
      <trkpt lat="44.85202" lon="5.34228">
        <ele>1407</ele>
        <time>2011-05-01T09:12:36Z</time>
      </trkpt>
      <trkpt lat="44.85171" lon="5.34203">
        <ele>1411</ele>
        <time>2011-05-01T09:13:16Z</time>
      </trkpt>
      <trkpt lat="44.85143" lon="5.34158">
        <ele>1415</ele>
        <time>2011-05-01T09:14:16Z</time>
      </trkpt>
      <trkpt lat="44.8509" lon="5.34113">
        <ele>1421</ele>
        <time>2011-05-01T09:15:50Z</time>
      </trkpt>
      <trkpt lat="44.85027" lon="5.34056">
        <ele>1426</ele>
        <time>2011-05-01T09:17:27Z</time>
      </trkpt>
      <trkpt lat="44.8498" lon="5.33997">
        <ele>1431</ele>
        <time>2011-05-01T09:18:42Z</time>
      </trkpt>
      <trkpt lat="44.84938" lon="5.33897">
        <ele>1438</ele>
        <time>2011-05-01T09:20:27Z</time>
      </trkpt>
      <trkpt lat="44.84907" lon="5.33854">
        <ele>1442</ele>
        <time>2011-05-01T09:21:17Z</time>
      </trkpt>
      <trkpt lat="44.8488" lon="5.33805">
        <ele>1445</ele>
        <time>2011-05-01T09:22:07Z</time>
      </trkpt>
      <trkpt lat="44.84828" lon="5.3376">
        <ele>1448</ele>
        <time>2011-05-01T09:23:12Z</time>
      </trkpt>
      <trkpt lat="44.84767" lon="5.33681">
        <ele>1452</ele>
        <time>2011-05-01T09:24:47Z</time>
      </trkpt>
      <trkpt lat="44.8476" lon="5.33636">
        <ele>1453</ele>
        <time>2011-05-01T09:25:30Z</time>
      </trkpt>
      <trkpt lat="44.84744" lon="5.33579">
        <ele>1454</ele>
        <time>2011-05-01T09:26:13Z</time>
      </trkpt>
      <trkpt lat="44.84709" lon="5.33539">
        <ele>1455</ele>
        <time>2011-05-01T09:27:03Z</time>
      </trkpt>
      <trkpt lat="44.8469" lon="5.33504">
        <ele>1456</ele>
        <time>2011-05-01T09:35:37Z</time>
      </trkpt>
      <trkpt lat="44.84646" lon="5.33502">
        <ele>1458</ele>
        <time>2011-05-01T09:36:33Z</time>
      </trkpt>
      <trkpt lat="44.84602" lon="5.335">
        <ele>1460</ele>
        <time>2011-05-01T09:37:23Z</time>
      </trkpt>
      <trkpt lat="44.8456" lon="5.33507">
        <ele>1464</ele>
        <time>2011-05-01T09:38:38Z</time>
      </trkpt>
      <trkpt lat="44.84528" lon="5.33546">
        <ele>1468</ele>
        <time>2011-05-01T09:39:28Z</time>
      </trkpt>
      <trkpt lat="44.84489" lon="5.33571">
        <ele>1473</ele>
        <time>2011-05-01T09:40:23Z</time>
      </trkpt>
      <trkpt lat="44.84458" lon="5.33567">
        <ele>1477</ele>
        <time>2011-05-01T09:41:03Z</time>
      </trkpt>
      <trkpt lat="44.8441" lon="5.33576">
        <ele>1483</ele>
        <time>2011-05-01T09:41:53Z</time>
      </trkpt>
      <trkpt lat="44.84368" lon="5.33547">
        <ele>1489</ele>
        <time>2011-05-01T09:42:58Z</time>
      </trkpt>
      <trkpt lat="44.84328" lon="5.33538">
        <ele>1493</ele>
        <time>2011-05-01T09:43:48Z</time>
      </trkpt>
      <trkpt lat="44.84268" lon="5.33558">
        <ele>1502</ele>
        <time>2011-05-01T09:45:14Z</time>
      </trkpt>
      <trkpt lat="44.84229" lon="5.33545">
        <ele>1510</ele>
        <time>2011-05-01T09:46:18Z</time>
      </trkpt>
      <trkpt lat="44.84183" lon="5.33538">
        <ele>1520</ele>
        <time>2011-05-01T09:47:25Z</time>
      </trkpt>
      <trkpt lat="44.84072" lon="5.33438">
        <ele>1549</ele>
        <time>2011-05-01T09:53:13Z</time>
      </trkpt>
      <trkpt lat="44.84036" lon="5.33422">
        <ele>1555</ele>
        <time>2011-05-01T09:54:44Z</time>
      </trkpt>
      <trkpt lat="44.83988" lon="5.33456">
        <ele>1561</ele>
        <time>2011-05-01T09:55:47Z</time>
      </trkpt>
      <trkpt lat="44.83955" lon="5.33431">
        <ele>1562</ele>
        <time>2011-05-01T09:56:44Z</time>
      </trkpt>
      <trkpt lat="44.83944" lon="5.33418">
        <ele>1562</ele>
        <time>2011-05-01T10:43:00Z</time>
      </trkpt>
      <trkpt lat="44.83952" lon="5.33392">
        <ele>1563</ele>
        <time>2011-05-01T10:48:10Z</time>
      </trkpt>
      <trkpt lat="44.83905" lon="5.33425">
        <ele>1562</ele>
        <time>2011-05-01T10:50:00Z</time>
      </trkpt>
      <trkpt lat="44.8388" lon="5.3339">
        <ele>1560</ele>
        <time>2011-05-01T10:51:15Z</time>
      </trkpt>
      <trkpt lat="44.83845" lon="5.33363">
        <ele>1559</ele>
        <time>2011-05-01T10:52:40Z</time>
      </trkpt>
      <trkpt lat="44.83803" lon="5.33356">
        <ele>1557</ele>
        <time>2011-05-01T10:53:30Z</time>
      </trkpt>
      <trkpt lat="44.83762" lon="5.33351">
        <ele>1556</ele>
        <time>2011-05-01T10:54:17Z</time>
      </trkpt>
      <trkpt lat="44.83727" lon="5.33328">
        <ele>1557</ele>
        <time>2011-05-01T10:55:07Z</time>
      </trkpt>
      <trkpt lat="44.83688" lon="5.33319">
        <ele>1559</ele>
        <time>2011-05-01T10:55:52Z</time>
      </trkpt>
      <trkpt lat="44.83658" lon="5.33318">
        <ele>1562</ele>
        <time>2011-05-01T10:57:02Z</time>
      </trkpt>
      <trkpt lat="44.83576" lon="5.33328">
        <ele>1572</ele>
        <time>2011-05-01T10:58:47Z</time>
      </trkpt>
      <trkpt lat="44.83532" lon="5.33328">
        <ele>1579</ele>
        <time>2011-05-01T10:59:27Z</time>
      </trkpt>
      <trkpt lat="44.8349" lon="5.33335">
        <ele>1585</ele>
        <time>2011-05-01T11:00:47Z</time>
      </trkpt>
      <trkpt lat="44.83449" lon="5.3333">
        <ele>1590</ele>
        <time>2011-05-01T11:01:37Z</time>
      </trkpt>
      <trkpt lat="44.83405" lon="5.33316">
        <ele>1596</ele>
        <time>2011-05-01T11:03:02Z</time>
      </trkpt>
      <trkpt lat="44.83365" lon="5.33307">
        <ele>1602</ele>
        <time>2011-05-01T11:04:39Z</time>
      </trkpt>
      <trkpt lat="44.83341" lon="5.33279">
        <ele>1606</ele>
        <time>2011-05-01T11:06:09Z</time>
      </trkpt>
      <trkpt lat="44.83272" lon="5.33246">
        <ele>1617</ele>
        <time>2011-05-01T11:07:44Z</time>
      </trkpt>
      <trkpt lat="44.83245" lon="5.3323">
        <ele>1622</ele>
        <time>2011-05-01T11:09:49Z</time>
      </trkpt>
      <trkpt lat="44.83212" lon="5.33208">
        <ele>1627</ele>
        <time>2011-05-01T11:11:19Z</time>
      </trkpt>
      <trkpt lat="44.83175" lon="5.33196">
        <ele>1632</ele>
        <time>2011-05-01T11:12:09Z</time>
      </trkpt>
      <trkpt lat="44.83137" lon="5.33195">
        <ele>1635</ele>
        <time>2011-05-01T11:13:04Z</time>
      </trkpt>
      <trkpt lat="44.83082" lon="5.33173">
        <ele>1636</ele>
        <time>2011-05-01T11:16:04Z</time>
      </trkpt>
      <trkpt lat="44.83037" lon="5.33158">
        <ele>1634</ele>
        <time>2011-05-01T11:17:33Z</time>
      </trkpt>
      <trkpt lat="44.83013" lon="5.33167">
        <ele>1632</ele>
        <time>2011-05-01T11:21:24Z</time>
      </trkpt>
      <trkpt lat="44.82988" lon="5.33201">
        <ele>1628</ele>
        <time>2011-05-01T11:23:34Z</time>
      </trkpt>
      <trkpt lat="44.82977" lon="5.33245">
        <ele>1623</ele>
        <time>2011-05-01T11:24:19Z</time>
      </trkpt>
      <trkpt lat="44.82975" lon="5.33286">
        <ele>1617</ele>
        <time>2011-05-01T11:25:04Z</time>
      </trkpt>
      <trkpt lat="44.82968" lon="5.33326">
        <ele>1611</ele>
        <time>2011-05-01T11:25:49Z</time>
      </trkpt>
      <trkpt lat="44.82947" lon="5.33368">
        <ele>1603</ele>
        <time>2011-05-01T11:28:54Z</time>
      </trkpt>
      <trkpt lat="44.82926" lon="5.33404">
        <ele>1594</ele>
        <time>2011-05-01T11:29:39Z</time>
      </trkpt>
      <trkpt lat="44.82946" lon="5.33453">
        <ele>1584</ele>
        <time>2011-05-01T11:30:29Z</time>
      </trkpt>
      <trkpt lat="44.82979" lon="5.33493">
        <ele>1574</ele>
        <time>2011-05-01T11:31:14Z</time>
      </trkpt>
      <trkpt lat="44.83005" lon="5.33531">
        <ele>1565</ele>
        <time>2011-05-01T11:31:54Z</time>
      </trkpt>
      <trkpt lat="44.83042" lon="5.33624">
        <ele>1550</ele>
        <time>2011-05-01T11:33:49Z</time>
      </trkpt>
      <trkpt lat="44.83066" lon="5.33662">
        <ele>1544</ele>
        <time>2011-05-01T11:35:14Z</time>
      </trkpt>
      <trkpt lat="44.83095" lon="5.33751">
        <ele>1532</ele>
        <time>2011-05-01T11:36:39Z</time>
      </trkpt>
      <trkpt lat="44.83106" lon="5.33799">
        <ele>1527</ele>
        <time>2011-05-01T11:37:34Z</time>
      </trkpt>
      <trkpt lat="44.83113" lon="5.33821">
        <ele>1524</ele>
        <time>2011-05-01T11:39:49Z</time>
      </trkpt>
      <trkpt lat="44.83136" lon="5.33853">
        <ele>1519</ele>
        <time>2011-05-01T11:40:54Z</time>
      </trkpt>
      <trkpt lat="44.83144" lon="5.33914">
        <ele>1512</ele>
        <time>2011-05-01T11:41:59Z</time>
      </trkpt>
      <trkpt lat="44.83163" lon="5.33958">
        <ele>1507</ele>
        <time>2011-05-01T11:42:49Z</time>
      </trkpt>
      <trkpt lat="44.83174" lon="5.3401">
        <ele>1501</ele>
        <time>2011-05-01T11:43:24Z</time>
      </trkpt>
      <trkpt lat="44.83197" lon="5.34049">
        <ele>1497</ele>
        <time>2011-05-01T11:44:04Z</time>
      </trkpt>
      <trkpt lat="44.83204" lon="5.34104">
        <ele>1491</ele>
        <time>2011-05-01T11:44:44Z</time>
      </trkpt>
      <trkpt lat="44.83201" lon="5.34156">
        <ele>1486</ele>
        <time>2011-05-01T11:45:29Z</time>
      </trkpt>
      <trkpt lat="44.83213" lon="5.34208">
        <ele>1481</ele>
        <time>2011-05-01T11:46:24Z</time>
      </trkpt>
      <trkpt lat="44.83227" lon="5.34257">
        <ele>1474</ele>
        <time>2011-05-01T11:47:14Z</time>
      </trkpt>
      <trkpt lat="44.83234" lon="5.3435">
        <ele>1460</ele>
        <time>2011-05-01T11:48:49Z</time>
      </trkpt>
      <trkpt lat="44.83232" lon="5.34395">
        <ele>1453</ele>
        <time>2011-05-01T11:50:09Z</time>
      </trkpt>
      <trkpt lat="44.83227" lon="5.3445">
        <ele>1444</ele>
        <time>2011-05-01T11:51:09Z</time>
      </trkpt>
      <trkpt lat="44.8323" lon="5.34492">
        <ele>1439</ele>
        <time>2011-05-01T11:52:24Z</time>
      </trkpt>
      <trkpt lat="44.83234" lon="5.34492">
        <ele>1438</ele>
        <time>2011-05-01T11:55:39Z</time>
      </trkpt>
      <trkpt lat="44.8322" lon="5.34539">
        <ele>1434</ele>
        <time>2011-05-01T11:57:24Z</time>
      </trkpt>
      <trkpt lat="44.83223" lon="5.34595">
        <ele>1432</ele>
        <time>2011-05-01T11:58:19Z</time>
      </trkpt>
      <trkpt lat="44.83233" lon="5.34645">
        <ele>1432</ele>
        <time>2011-05-01T11:59:09Z</time>
      </trkpt>
      <trkpt lat="44.83238" lon="5.34695">
        <ele>1433</ele>
        <time>2011-05-01T11:59:49Z</time>
      </trkpt>
      <trkpt lat="44.83235" lon="5.34747">
        <ele>1435</ele>
        <time>2011-05-01T12:00:34Z</time>
      </trkpt>
      <trkpt lat="44.83237" lon="5.34792">
        <ele>1435</ele>
        <time>2011-05-01T12:01:19Z</time>
      </trkpt>
      <trkpt lat="44.83225" lon="5.34843">
        <ele>1433</ele>
        <time>2011-05-01T12:02:09Z</time>
      </trkpt>
      <trkpt lat="44.83209" lon="5.34887">
        <ele>1429</ele>
        <time>2011-05-01T12:02:49Z</time>
      </trkpt>
      <trkpt lat="44.83195" lon="5.34947">
        <ele>1420</ele>
        <time>2011-05-01T12:03:34Z</time>
      </trkpt>
      <trkpt lat="44.83185" lon="5.34997">
        <ele>1411</ele>
        <time>2011-05-01T12:04:14Z</time>
      </trkpt>
      <trkpt lat="44.83149" lon="5.35093">
        <ele>1391</ele>
        <time>2011-05-01T12:05:54Z</time>
      </trkpt>
      <trkpt lat="44.83098" lon="5.35178">
        <ele>1375</ele>
        <time>2011-05-01T12:08:54Z</time>
      </trkpt>
      <trkpt lat="44.8307" lon="5.35202">
        <ele>1370</ele>
        <time>2011-05-01T12:09:44Z</time>
      </trkpt>
      <trkpt lat="44.83045" lon="5.3525">
        <ele>1364</ele>
        <time>2011-05-01T12:10:54Z</time>
      </trkpt>
      <trkpt lat="44.83043" lon="5.35308">
        <ele>1361</ele>
        <time>2011-05-01T12:12:39Z</time>
      </trkpt>
      <trkpt lat="44.83073" lon="5.35299">
        <ele>1360</ele>
        <time>2011-05-01T12:15:34Z</time>
      </trkpt>
      <trkpt lat="44.83082" lon="5.35268">
        <ele>1360</ele>
        <time>2011-05-01T12:17:29Z</time>
      </trkpt>
      <trkpt lat="44.83121" lon="5.35263">
        <ele>1360</ele>
        <time>2011-05-01T12:18:44Z</time>
      </trkpt>
      <trkpt lat="44.83142" lon="5.35269">
        <ele>1360</ele>
        <time>2011-05-01T12:19:24Z</time>
      </trkpt>
      <trkpt lat="44.83158" lon="5.35325">
        <ele>1360</ele>
        <time>2011-05-01T12:19:54Z</time>
      </trkpt>
      <trkpt lat="44.83174" lon="5.35365">
        <ele>1360</ele>
        <time>2011-05-01T12:20:29Z</time>
      </trkpt>
      <trkpt lat="44.83205" lon="5.35406">
        <ele>1358</ele>
        <time>2011-05-01T12:21:08Z</time>
      </trkpt>
      <trkpt lat="44.83211" lon="5.35438">
        <ele>1357</ele>
        <time>2011-05-01T12:26:03Z</time>
      </trkpt>
      <trkpt lat="44.83275" lon="5.35499">
        <ele>1349</ele>
        <time>2011-05-01T12:27:28Z</time>
      </trkpt>
      <trkpt lat="44.83317" lon="5.35486">
        <ele>1344</ele>
        <time>2011-05-01T12:28:08Z</time>
      </trkpt>
      <trkpt lat="44.83347" lon="5.35456">
        <ele>1340</ele>
        <time>2011-05-01T12:28:53Z</time>
      </trkpt>
      <trkpt lat="44.83385" lon="5.35435">
        <ele>1336</ele>
        <time>2011-05-01T12:29:33Z</time>
      </trkpt>
      <trkpt lat="44.83486" lon="5.35415">
        <ele>1331</ele>
        <time>2011-05-01T12:31:56Z</time>
      </trkpt>
      <trkpt lat="44.83521" lon="5.35398">
        <ele>1329</ele>
        <time>2011-05-01T12:32:31Z</time>
      </trkpt>
      <trkpt lat="44.83555" lon="5.35357">
        <ele>1328</ele>
        <time>2011-05-01T12:33:11Z</time>
      </trkpt>
      <trkpt lat="44.83581" lon="5.35319">
        <ele>1327</ele>
        <time>2011-05-01T12:33:41Z</time>
      </trkpt>
      <trkpt lat="44.83601" lon="5.35276">
        <ele>1326</ele>
        <time>2011-05-01T12:34:16Z</time>
      </trkpt>
      <trkpt lat="44.83616" lon="5.35234">
        <ele>1326</ele>
        <time>2011-05-01T12:34:51Z</time>
      </trkpt>
      <trkpt lat="44.83632" lon="5.35185">
        <ele>1326</ele>
        <time>2011-05-01T12:35:31Z</time>
      </trkpt>
      <trkpt lat="44.83627" lon="5.35129">
        <ele>1327</ele>
        <time>2011-05-01T12:36:11Z</time>
      </trkpt>
      <trkpt lat="44.83636" lon="5.35072">
        <ele>1329</ele>
        <time>2011-05-01T12:36:46Z</time>
      </trkpt>
      <trkpt lat="44.8363" lon="5.35024">
        <ele>1331</ele>
        <time>2011-05-01T12:37:16Z</time>
      </trkpt>
      <trkpt lat="44.83634" lon="5.34972">
        <ele>1334</ele>
        <time>2011-05-01T12:38:06Z</time>
      </trkpt>
      <trkpt lat="44.83662" lon="5.34972">
        <ele>1336</ele>
        <time>2011-05-01T12:38:41Z</time>
      </trkpt>
      <trkpt lat="44.83693" lon="5.35006">
        <ele>1339</ele>
        <time>2011-05-01T12:39:16Z</time>
      </trkpt>
      <trkpt lat="44.83769" lon="5.35184">
        <ele>1344</ele>
        <time>2011-05-01T12:41:30Z</time>
      </trkpt>
      <trkpt lat="44.83788" lon="5.35217">
        <ele>1345</ele>
        <time>2011-05-01T12:42:00Z</time>
      </trkpt>
      <trkpt lat="44.83819" lon="5.35242">
        <ele>1346</ele>
        <time>2011-05-01T12:42:40Z</time>
      </trkpt>
      <trkpt lat="44.83889" lon="5.35265">
        <ele>1348</ele>
        <time>2011-05-01T12:43:45Z</time>
      </trkpt>
      <trkpt lat="44.83929" lon="5.35271">
        <ele>1349</ele>
        <time>2011-05-01T12:44:30Z</time>
      </trkpt>
      <trkpt lat="44.83977" lon="5.35264">
        <ele>1350</ele>
        <time>2011-05-01T12:45:10Z</time>
      </trkpt>
      <trkpt lat="44.84013" lon="5.35255">
        <ele>1351</ele>
        <time>2011-05-01T12:45:45Z</time>
      </trkpt>
      <trkpt lat="44.84086" lon="5.35196">
        <ele>1350</ele>
        <time>2011-05-01T12:47:05Z</time>
      </trkpt>
      <trkpt lat="44.84101" lon="5.35139">
        <ele>1349</ele>
        <time>2011-05-01T12:50:35Z</time>
      </trkpt>
      <trkpt lat="44.84118" lon="5.35094">
        <ele>1348</ele>
        <time>2011-05-01T12:51:25Z</time>
      </trkpt>
      <trkpt lat="44.84166" lon="5.35074">
        <ele>1344</ele>
        <time>2011-05-01T12:52:20Z</time>
      </trkpt>
      <trkpt lat="44.84218" lon="5.35057">
        <ele>1340</ele>
        <time>2011-05-01T12:53:15Z</time>
      </trkpt>
      <trkpt lat="44.8427" lon="5.3506">
        <ele>1335</ele>
        <time>2011-05-01T12:54:20Z</time>
      </trkpt>
      <trkpt lat="44.8437" lon="5.35022">
        <ele>1324</ele>
        <time>2011-05-01T12:58:10Z</time>
      </trkpt>
      <trkpt lat="44.84432" lon="5.35036">
        <ele>1318</ele>
        <time>2011-05-01T12:59:18Z</time>
      </trkpt>
      <trkpt lat="44.84481" lon="5.35018">
        <ele>1314</ele>
        <time>2011-05-01T13:00:04Z</time>
      </trkpt>
      <trkpt lat="44.84586" lon="5.35036">
        <ele>1307</ele>
        <time>2011-05-01T13:01:58Z</time>
      </trkpt>
      <trkpt lat="44.84618" lon="5.3503">
        <ele>1305</ele>
        <time>2011-05-01T13:02:43Z</time>
      </trkpt>
      <trkpt lat="44.84656" lon="5.35019">
        <ele>1303</ele>
        <time>2011-05-01T13:03:23Z</time>
      </trkpt>
      <trkpt lat="44.84696" lon="5.3503">
        <ele>1300</ele>
        <time>2011-05-01T13:03:51Z</time>
      </trkpt>
      <trkpt lat="44.84742" lon="5.35024">
        <ele>1297</ele>
        <time>2011-05-01T13:04:44Z</time>
      </trkpt>
      <trkpt lat="44.84785" lon="5.35031">
        <ele>1294</ele>
        <time>2011-05-01T13:05:24Z</time>
      </trkpt>
      <trkpt lat="44.84818" lon="5.35052">
        <ele>1292</ele>
        <time>2011-05-01T13:06:25Z</time>
      </trkpt>
      <trkpt lat="44.8485" lon="5.35087">
        <ele>1288</ele>
        <time>2011-05-01T13:07:00Z</time>
      </trkpt>
      <trkpt lat="44.84893" lon="5.35098">
        <ele>1285</ele>
        <time>2011-05-01T13:07:55Z</time>
      </trkpt>
      <trkpt lat="44.84935" lon="5.35101">
        <ele>1282</ele>
        <time>2011-05-01T13:08:40Z</time>
      </trkpt>
      <trkpt lat="44.8498" lon="5.35113">
        <ele>1278</ele>
        <time>2011-05-01T13:09:20Z</time>
      </trkpt>
      <trkpt lat="44.8501" lon="5.35134">
        <ele>1275</ele>
        <time>2011-05-01T13:10:05Z</time>
      </trkpt>
      <trkpt lat="44.85055" lon="5.3513">
        <ele>1272</ele>
        <time>2011-05-01T13:10:43Z</time>
      </trkpt>
      <trkpt lat="44.85082" lon="5.35097">
        <ele>1270</ele>
        <time>2011-05-01T13:11:25Z</time>
      </trkpt>
      <trkpt lat="44.8512" lon="5.35093">
        <ele>1267</ele>
        <time>2011-05-01T13:19:20Z</time>
      </trkpt>
      <trkpt lat="44.85162" lon="5.35121">
        <ele>1264</ele>
        <time>2011-05-01T13:20:10Z</time>
      </trkpt>
      <trkpt lat="44.85196" lon="5.35172">
        <ele>1260</ele>
        <time>2011-05-01T13:21:07Z</time>
      </trkpt>
      <trkpt lat="44.85216" lon="5.3522">
        <ele>1257</ele>
        <time>2011-05-01T13:22:06Z</time>
      </trkpt>
      <trkpt lat="44.85244" lon="5.35266">
        <ele>1254</ele>
        <time>2011-05-01T13:22:46Z</time>
      </trkpt>
      <trkpt lat="44.85279" lon="5.35305">
        <ele>1252</ele>
        <time>2011-05-01T13:23:24Z</time>
      </trkpt>
      <trkpt lat="44.85313" lon="5.35332">
        <ele>1251</ele>
        <time>2011-05-01T13:23:57Z</time>
      </trkpt>
      <trkpt lat="44.85392" lon="5.35373">
        <ele>1252</ele>
        <time>2011-05-01T13:25:17Z</time>
      </trkpt>
      <trkpt lat="44.85444" lon="5.35382">
        <ele>1253</ele>
        <time>2011-05-01T13:26:12Z</time>
      </trkpt>
      <trkpt lat="44.8548" lon="5.3541">
        <ele>1254</ele>
        <time>2011-05-01T13:26:57Z</time>
      </trkpt>
      <trkpt lat="44.85514" lon="5.35441">
        <ele>1256</ele>
        <time>2011-05-01T13:27:42Z</time>
      </trkpt>
      <trkpt lat="44.85563" lon="5.35456">
        <ele>1257</ele>
        <time>2011-05-01T13:28:47Z</time>
      </trkpt>
      <trkpt lat="44.85617" lon="5.35425">
        <ele>1259</ele>
        <time>2011-05-01T13:29:43Z</time>
      </trkpt>
      <trkpt lat="44.85665" lon="5.35404">
        <ele>1260</ele>
        <time>2011-05-01T13:30:36Z</time>
      </trkpt>
      <trkpt lat="44.85744" lon="5.35423">
        <ele>1260</ele>
        <time>2011-05-01T13:31:47Z</time>
      </trkpt>
      <trkpt lat="44.85785" lon="5.35441">
        <ele>1259</ele>
        <time>2011-05-01T13:32:27Z</time>
      </trkpt>
      <trkpt lat="44.85823" lon="5.35464">
        <ele>1258</ele>
        <time>2011-05-01T13:33:07Z</time>
      </trkpt>
      <trkpt lat="44.85858" lon="5.35503">
        <ele>1257</ele>
        <time>2011-05-01T13:33:57Z</time>
      </trkpt>
      <trkpt lat="44.85903" lon="5.35518">
        <ele>1255</ele>
        <time>2011-05-01T13:34:47Z</time>
      </trkpt>
      <trkpt lat="44.85949" lon="5.3549">
        <ele>1253</ele>
        <time>2011-05-01T13:35:34Z</time>
      </trkpt>
      <trkpt lat="44.86004" lon="5.35497">
        <ele>1249</ele>
        <time>2011-05-01T13:36:52Z</time>
      </trkpt>
      <trkpt lat="44.86057" lon="5.35549">
        <ele>1244</ele>
        <time>2011-05-01T13:38:02Z</time>
      </trkpt>
      <trkpt lat="44.86136" lon="5.35552">
        <ele>1235</ele>
        <time>2011-05-01T13:39:53Z</time>
      </trkpt>
      <trkpt lat="44.86196" lon="5.35604">
        <ele>1226</ele>
        <time>2011-05-01T13:41:28Z</time>
      </trkpt>
      <trkpt lat="44.86241" lon="5.35632">
        <ele>1219</ele>
        <time>2011-05-01T13:42:39Z</time>
      </trkpt>
      <trkpt lat="44.86276" lon="5.35671">
        <ele>1213</ele>
        <time>2011-05-01T13:43:39Z</time>
      </trkpt>
      <trkpt lat="44.86316" lon="5.3572">
        <ele>1206</ele>
        <time>2011-05-01T13:44:39Z</time>
      </trkpt>
      <trkpt lat="44.86395" lon="5.35711">
        <ele>1196</ele>
        <time>2011-05-01T13:46:18Z</time>
      </trkpt>
      <trkpt lat="44.86451" lon="5.35718">
        <ele>1189</ele>
        <time>2011-05-01T13:47:20Z</time>
      </trkpt>
      <trkpt lat="44.86569" lon="5.35752">
        <ele>1179</ele>
        <time>2011-05-01T13:49:38Z</time>
      </trkpt>
      <trkpt lat="44.86557" lon="5.35685">
        <ele>1177</ele>
        <time>2011-05-01T13:50:38Z</time>
      </trkpt>
    </trkseg>
  </trk>
</gpx>